Terminal Aerodrome Forecast
Issued by NWS Bismarck, ND

Home | Current Version | Previous Version | Text Only | Print | Product List | Glossary Off
Versions: 1 2 3 4 5 6 7 8 9 10 11 12 13 14 15 16 17 18 19 20 21 22 23 24 25 26 27 28

000
FTUS43 KBIS 161124
TAFBIS
TAF
KBIS 161124Z 1612/1712 34005KT P6SM OVC005
     FM161500 34006KT P6SM BKN008
     FM161700 35007KT P6SM BKN015
     FM161900 35008KT P6SM SCT050
     FM162100 35009KT P6SM FEW250=

USA.gov is the U.S. government's official web portal to all federal, state and local government web resources and services.